createdAt,value
2018-11-13T00:04:13.715Z,115.03
2018-11-13T00:09:16.918Z,140.92
2018-11-13T00:14:20.118Z,128.45
2018-11-13T00:19:23.287Z,115.05
2018-11-13T00:24:26.466Z,114.23
2018-11-13T00:29:29.690Z,108.40
2018-11-13T00:34:32.864Z,105.63
2018-11-13T00:39:36.050Z,109.52
2018-11-13T00:44:39.238Z,116.00
2018-11-13T00:49:42.440Z,128.82
2018-11-13T00:54:45.689Z,122.87
2018-11-13T00:59:48.874Z,110.42
2018-11-13T01:04:52.090Z,105.07
2018-11-13T01:09:55.306Z,108.33
2018-11-13T01:14:58.559Z,111.05
2018-11-13T01:20:01.744Z,108.60
2018-11-13T01:25:05.436Z,107.60
2018-11-13T01:30:09.909Z,105.27
2018-11-13T01:35:14.351Z,102.90
2018-11-13T01:40:19.406Z,107.40
2018-11-13T01:45:22.634Z,96.20
2018-11-13T01:50:25.839Z,95.25
2018-11-13T01:55:29.036Z,95.75
2018-11-13T02:00:32.239Z,93.37
2018-11-13T02:05:35.464Z,99.58
2018-11-13T02:10:38.700Z,95.67
2018-11-13T02:15:41.887Z,99.95
2018-11-13T02:20:45.083Z,84.00
2018-11-13T02:25:48.270Z,87.90
2018-11-13T02:30:51.497Z,85.05
2018-11-13T02:35:54.704Z,81.08
2018-11-13T02:40:57.899Z,75.53
2018-11-13T02:46:01.135Z,76.28
2018-11-13T02:51:04.507Z,69.97
2018-11-13T02:56:07.820Z,74.05
2018-11-13T03:01:11.115Z,71.72
2018-11-13T03:06:14.331Z,63.40
2018-11-13T03:11:17.555Z,62.17
2018-11-13T03:16:20.788Z,62.53
2018-11-13T03:21:23.979Z,62.55
2018-11-13T03:26:27.200Z,65.22
2018-11-13T03:31:30.470Z,57.80
2018-11-13T03:36:33.620Z,56.02
2018-11-13T03:41:37.260Z,59.43
2018-11-13T03:46:40.471Z,57.65
2018-11-13T03:51:43.684Z,57.37
2018-11-13T03:56:46.910Z,49.37
2018-11-13T04:01:50.171Z,44.48
2018-11-13T04:06:53.415Z,37.65
2018-11-13T04:11:56.659Z,32.78
2018-11-13T04:16:59.895Z,29.80
2018-11-13T04:22:04.971Z,30.60
2018-11-13T04:27:08.196Z,26.80
2018-11-13T04:32:11.432Z,25.17
2018-11-13T04:37:14.671Z,24.82
2018-11-13T04:42:17.907Z,22.05
2018-11-13T04:47:21.127Z,20.62
2018-11-13T04:52:24.377Z,19.87
2018-11-13T04:57:27.612Z,19.10
2018-11-13T05:02:30.870Z,19.20
2018-11-13T05:07:34.148Z,18.65
2018-11-13T05:12:37.400Z,16.67
2018-11-13T05:17:41.300Z,16.37
2018-11-13T05:22:44.495Z,18.70
2018-11-13T05:27:47.851Z,17.85
2018-11-13T05:32:51.701Z,19.27
2018-11-13T05:37:54.887Z,20.55
2018-11-13T05:42:58.099Z,19.87
2018-11-13T05:48:01.498Z,21.13
2018-11-13T05:53:04.999Z,20.10
2018-11-13T05:58:08.191Z,21.20
2018-11-13T06:03:11.383Z,21.82
2018-11-13T06:08:17.444Z,20.08
2018-11-13T06:13:20.627Z,20.00
2018-11-13T06:18:23.940Z,17.60
2018-11-13T06:23:27.059Z,16.73
2018-11-13T06:28:30.272Z,16.97
2018-11-13T06:33:33.458Z,16.60
2018-11-13T06:38:36.719Z,17.52
2018-11-13T06:43:39.868Z,19.40
2018-11-13T06:48:43.099Z,18.60
2018-11-13T06:53:57.646Z,17.10
2018-11-13T06:59:00.873Z,16.10
2018-11-13T07:04:04.047Z,18.82
2018-11-13T07:09:08.086Z,18.65
2018-11-13T07:14:11.272Z,18.10
2018-11-13T07:19:14.472Z,21.05
2018-11-13T07:24:17.683Z,15.65
2018-11-13T07:29:20.955Z,17.30
2018-11-13T07:34:24.146Z,19.65
2018-11-13T07:39:27.335Z,17.40
2018-11-13T07:44:30.515Z,17.32
2018-11-13T07:49:33.720Z,16.93
2018-11-13T07:54:38.031Z,22.45
2018-11-13T07:59:41.228Z,18.57
2018-11-13T08:04:44.432Z,17.17
2018-11-13T08:09:47.642Z,17.73
2018-11-13T08:14:50.847Z,18.55
2018-11-13T08:19:54.039Z,17.20
2018-11-13T08:24:57.255Z,18.53
2018-11-13T08:30:00.459Z,15.83
2018-11-13T08:35:03.815Z,15.63
2018-11-13T08:40:08.986Z,13.55
2018-11-13T08:45:13.071Z,12.00
2018-11-13T08:50:16.538Z,12.05
2018-11-13T08:55:19.745Z,12.15
2018-11-13T09:00:22.944Z,8.88
2018-11-13T09:05:26.280Z,9.55
2018-11-13T09:10:29.488Z,9.33
2018-11-13T09:15:32.699Z,8.97
2018-11-13T09:20:35.911Z,10.70
2018-11-13T09:25:39.103Z,8.43
2018-11-13T09:30:42.574Z,9.33
2018-11-13T09:35:45.515Z,8.17
2018-11-13T09:40:48.751Z,11.35
2018-11-13T09:45:51.991Z,9.33
2018-11-13T09:50:55.228Z,9.55
2018-11-13T09:55:58.437Z,7.92
2018-11-13T10:01:01.938Z,10.93
2018-11-13T10:06:04.895Z,9.33
2018-11-13T10:11:08.099Z,9.67
2018-11-13T10:16:11.280Z,9.50
2018-11-13T10:21:14.499Z,8.35
2018-11-13T10:26:17.689Z,10.83
2018-11-13T10:31:20.914Z,10.35
2018-11-13T10:36:24.115Z,12.23
2018-11-13T10:41:27.340Z,9.10
2018-11-13T10:46:30.499Z,10.28
2018-11-13T10:51:33.707Z,9.33
2018-11-13T10:56:36.981Z,9.80
2018-11-13T11:01:59.483Z,9.78
2018-11-13T11:07:02.710Z,8.83
2018-11-13T11:12:06.438Z,5.40
2018-11-13T11:17:10.428Z,6.75
2018-11-13T11:22:13.695Z,7.47
2018-11-13T11:27:16.923Z,7.15
2018-11-13T11:32:20.197Z,5.08
2018-11-13T11:37:23.459Z,6.10
2018-11-13T11:42:26.696Z,7.00
2018-11-13T11:47:30.534Z,5.75
2018-11-13T11:52:33.768Z,7.67
2018-11-13T11:57:36.978Z,7.87
2018-11-13T12:02:40.199Z,4.53
2018-11-13T12:07:43.535Z,6.37
2018-11-13T12:12:46.743Z,5.00
2018-11-13T12:17:49.995Z,5.55
2018-11-13T12:22:53.265Z,6.57
2018-11-13T12:27:56.479Z,4.50
2018-11-13T12:32:59.723Z,5.20
2018-11-13T12:38:02.960Z,4.80
2018-11-13T12:43:06.370Z,4.75
2018-11-13T12:48:09.628Z,3.50
2018-11-13T12:53:12.895Z,5.20
2018-11-13T12:58:16.114Z,3.62
2018-11-13T13:03:19.355Z,2.97
2018-11-13T13:08:22.593Z,3.35
2018-11-13T13:13:25.836Z,7.53
2018-11-13T13:18:29.027Z,4.20
2018-11-13T13:23:32.256Z,6.17
2018-11-13T13:28:35.671Z,6.87
2018-11-13T13:33:38.907Z,9.30
2018-11-13T13:38:42.285Z,6.05
2018-11-13T13:43:45.478Z,6.90
2018-11-13T13:48:48.716Z,6.60
2018-11-13T13:53:52.080Z,6.65
2018-11-13T13:58:55.276Z,8.37
2018-11-13T14:03:58.524Z,9.95
2018-11-13T14:09:01.755Z,6.42
2018-11-13T14:14:05.135Z,9.30
2018-11-13T14:19:08.387Z,15.03
2018-11-13T14:24:11.592Z,8.23
2018-11-13T14:29:14.851Z,5.60
2018-11-13T14:34:18.013Z,8.18
2018-11-13T14:39:21.220Z,8.80
2018-11-13T14:44:24.420Z,6.40
2018-11-13T14:49:27.644Z,5.50
2018-11-13T14:54:30.853Z,6.72
2018-11-13T14:59:34.161Z,8.17
2018-11-13T15:04:37.375Z,8.28
2018-11-13T15:09:40.631Z,6.78
2018-11-13T15:14:43.855Z,9.97
2018-11-13T15:19:47.075Z,7.80
2018-11-13T15:24:50.338Z,131.35
2018-11-13T15:29:54.141Z,13.18
2018-11-13T15:34:58.235Z,10.43
2018-11-13T15:40:01.486Z,9.20
2018-11-13T15:45:05.118Z,6.92
2018-11-13T15:50:12.407Z,8.63
2018-11-13T15:55:16.128Z,7.62
2018-11-13T16:00:25.004Z,9.27
2018-11-13T16:05:36.987Z,8.45
2018-11-13T16:10:40.233Z,8.47
2018-11-13T16:15:44.023Z,8.08
2018-11-13T16:20:47.246Z,8.87
2018-11-13T16:25:50.443Z,9.13
2018-11-13T16:30:53.800Z,8.70
2018-11-13T16:35:56.967Z,8.63
2018-11-13T16:41:00.579Z,8.97
2018-11-13T16:46:03.895Z,9.50
2018-11-13T16:51:07.476Z,9.70
2018-11-13T16:56:10.979Z,8.13
2018-11-13T17:01:14.384Z,10.63
2018-11-13T17:06:17.583Z,14.67
2018-11-13T17:11:20.788Z,9.13
2018-11-13T17:16:24.199Z,9.88
2018-11-13T17:21:27.428Z,11.33
2018-11-13T17:26:30.659Z,11.10
2018-11-13T17:31:33.939Z,10.53
2018-11-13T17:36:37.004Z,8.78
2018-11-13T17:41:40.207Z,10.48
2018-11-13T17:46:43.396Z,11.90
2018-11-13T17:51:46.594Z,14.93
2018-11-13T17:56:49.768Z,13.53
2018-11-13T18:01:52.969Z,8.33
2018-11-13T18:06:56.402Z,13.10
2018-11-13T18:11:59.785Z,12.37
2018-11-13T18:17:02.967Z,10.53
2018-11-13T18:22:06.313Z,10.17
2018-11-13T18:27:09.411Z,14.60
2018-11-13T18:32:12.628Z,11.18
2018-11-13T18:37:15.819Z,10.45
2018-11-13T18:42:19.016Z,11.45
2018-11-13T18:47:22.283Z,8.67
2018-11-13T18:52:26.511Z,11.08
2018-11-13T18:57:29.744Z,12.33
2018-11-13T19:02:32.917Z,9.70
2018-11-13T19:07:36.111Z,11.90
2018-11-13T19:12:39.805Z,9.08
2018-11-13T19:17:42.932Z,14.47
2018-11-13T19:22:46.083Z,12.65
2018-11-13T19:27:49.667Z,13.95
2018-11-13T19:32:53.119Z,12.37
2018-11-13T19:37:56.332Z,12.50
2018-11-13T19:43:00.907Z,13.68
2018-11-13T19:48:04.427Z,16.80
2018-11-13T19:53:07.713Z,13.25
2018-11-13T19:58:10.928Z,11.08
2018-11-13T20:03:14.332Z,12.45
2018-11-13T20:08:17.676Z,12.37
2018-11-13T20:13:20.947Z,11.83
2018-11-13T20:18:24.163Z,14.80
2018-11-13T20:23:27.582Z,14.23
2018-11-13T20:28:30.807Z,15.27
2018-11-13T20:33:34.001Z,17.12
2018-11-13T20:38:38.184Z,20.65
2018-11-13T20:43:41.748Z,13.45
2018-11-13T20:48:45.655Z,16.55
2018-11-13T20:53:48.935Z,15.80
2018-11-13T20:58:52.143Z,18.83
2018-11-13T21:03:55.357Z,14.10
2018-11-13T21:08:58.591Z,16.67
2018-11-13T21:14:01.808Z,14.07
2018-11-13T21:19:05.507Z,17.07
2018-11-13T21:24:09.271Z,15.23
2018-11-13T21:29:11.980Z,15.05
2018-11-13T21:34:15.216Z,14.50
2018-11-13T21:39:18.971Z,16.35
2018-11-13T21:44:22.196Z,13.58
2018-11-13T21:49:25.417Z,17.77
2018-11-13T21:54:28.633Z,17.40
2018-11-13T21:59:31.863Z,16.73
2018-11-13T22:04:35.208Z,19.00
2018-11-13T22:09:38.323Z,17.92
2018-11-13T22:14:41.503Z,20.53
2018-11-13T22:19:45.143Z,20.05
2018-11-13T22:24:47.907Z,19.02
2018-11-13T22:29:51.106Z,22.93
2018-11-13T22:34:54.311Z,21.60
2018-11-13T22:39:57.520Z,23.07
2018-11-13T22:45:00.703Z,23.70
2018-11-13T22:50:05.216Z,22.42
2018-11-13T22:55:09.663Z,25.93
2018-11-13T23:00:15.913Z,22.17
2018-11-13T23:05:19.072Z,23.45
2018-11-13T23:10:22.291Z,23.30
2018-11-13T23:15:25.536Z,24.32
2018-11-13T23:20:28.775Z,24.47
2018-11-13T23:25:32.011Z,27.07
2018-11-13T23:30:35.276Z,28.23
2018-11-13T23:35:38.457Z,28.32
2018-11-13T23:40:41.683Z,31.83
2018-11-13T23:45:44.923Z,30.10
2018-11-13T23:50:48.121Z,26.33
2018-11-13T23:55:51.667Z,31.90
